createdAt,value
2018-12-30T00:00:41.535Z,98.61
2018-12-30T00:03:08.202Z,98.80
2018-12-30T00:05:34.880Z,98.42
2018-12-30T00:08:01.649Z,99.17
2018-12-30T00:10:28.512Z,98.60
2018-12-30T00:12:55.297Z,98.96
2018-12-30T00:15:21.997Z,99.45
2018-12-30T00:17:48.746Z,99.40
2018-12-30T00:20:15.496Z,99.38
2018-12-30T00:22:42.272Z,99.75
2018-12-30T00:25:09.034Z,99.52
2018-12-30T00:27:35.785Z,99.80
2018-12-30T00:30:02.555Z,99.95
2018-12-30T00:32:29.304Z,99.12
2018-12-30T00:34:56.038Z,99.44
2018-12-30T00:37:22.808Z,98.28
2018-12-30T00:39:49.580Z,98.12
2018-12-30T00:42:16.348Z,99.19
2018-12-30T00:44:43.085Z,99.02
2018-12-30T00:47:09.868Z,98.71
2018-12-30T00:49:36.625Z,98.42
2018-12-30T00:52:03.384Z,98.39
2018-12-30T00:54:30.132Z,98.65
2018-12-30T00:56:56.889Z,97.15
2018-12-30T00:59:23.644Z,98.44
2018-12-30T01:01:50.414Z,98.58
2018-12-30T01:04:17.181Z,98.49
2018-12-30T01:06:43.929Z,98.44
2018-12-30T01:09:10.677Z,98.99
2018-12-30T01:11:37.448Z,98.70
2018-12-30T01:14:04.221Z,97.52
2018-12-30T01:16:30.984Z,97.10
2018-12-30T01:18:58.336Z,98.39
2018-12-30T01:21:25.397Z,99.66
2018-12-30T01:23:51.859Z,99.83
2018-12-30T01:26:18.617Z,100.00
2018-12-30T01:28:45.365Z,100.00
2018-12-30T01:31:12.168Z,100.00
2018-12-30T01:33:38.936Z,100.00
2018-12-30T01:36:05.700Z,100.00
2018-12-30T01:38:32.440Z,100.00
2018-12-30T01:40:59.224Z,100.00
2018-12-30T01:43:25.968Z,100.00
2018-12-30T01:45:52.728Z,100.00
2018-12-30T01:48:19.452Z,100.00
2018-12-30T01:50:46.225Z,100.00
2018-12-30T01:53:12.978Z,100.00
2018-12-30T01:55:39.743Z,100.00
2018-12-30T01:58:06.489Z,100.00
2018-12-30T02:00:33.257Z,100.00
2018-12-30T02:03:00.020Z,100.00
2018-12-30T02:05:26.776Z,100.00
2018-12-30T02:07:53.528Z,100.00
2018-12-30T02:10:20.268Z,100.00
2018-12-30T02:12:47.028Z,100.00
2018-12-30T02:15:13.761Z,100.00
2018-12-30T02:17:40.525Z,100.00
2018-12-30T02:20:07.272Z,100.00
2018-12-30T02:22:34.044Z,100.00
2018-12-30T02:25:00.784Z,100.00
2018-12-30T02:27:27.600Z,100.00
2018-12-30T02:29:54.332Z,100.00
2018-12-30T02:32:21.162Z,100.00
2018-12-30T02:34:47.856Z,100.00
2018-12-30T02:37:14.609Z,100.00
2018-12-30T02:39:41.360Z,100.00
2018-12-30T02:42:08.128Z,100.00
2018-12-30T02:44:34.907Z,100.00
2018-12-30T02:47:01.633Z,100.00
2018-12-30T02:49:28.373Z,100.00
2018-12-30T02:51:55.151Z,100.00
2018-12-30T02:54:21.896Z,100.00
2018-12-30T02:56:48.676Z,100.00
2018-12-30T02:59:15.414Z,100.00
2018-12-30T03:01:42.178Z,100.00
2018-12-30T03:04:08.974Z,100.00
2018-12-30T03:06:35.738Z,100.00
2018-12-30T03:09:02.556Z,100.00
2018-12-30T03:11:29.309Z,100.00
2018-12-30T03:13:56.081Z,100.00
2018-12-30T03:16:22.816Z,100.00
2018-12-30T03:18:49.584Z,100.00
2018-12-30T03:21:16.321Z,100.00
2018-12-30T03:23:43.093Z,100.00
2018-12-30T03:26:09.835Z,100.00
2018-12-30T03:28:36.605Z,99.76
2018-12-30T03:31:03.342Z,99.34
2018-12-30T03:33:30.096Z,99.74
2018-12-30T03:35:56.824Z,99.66
2018-12-30T03:38:23.619Z,99.83
2018-12-30T03:40:50.357Z,99.53
2018-12-30T03:43:17.120Z,99.63
2018-12-30T03:45:43.932Z,99.54
2018-12-30T03:48:10.679Z,99.41
2018-12-30T03:50:37.428Z,99.51
2018-12-30T03:53:04.180Z,99.32
2018-12-30T03:55:30.904Z,99.27
2018-12-30T03:57:57.705Z,99.25
2018-12-30T04:00:24.427Z,99.38
2018-12-30T04:02:51.171Z,99.54
2018-12-30T04:05:17.901Z,99.83
2018-12-30T04:07:44.664Z,100.00
2018-12-30T04:10:11.396Z,100.00
2018-12-30T04:12:38.144Z,100.00
2018-12-30T04:15:04.909Z,100.00
2018-12-30T04:17:31.687Z,100.00
2018-12-30T04:19:58.469Z,99.95
2018-12-30T04:22:25.192Z,99.73
2018-12-30T04:24:51.944Z,100.00
2018-12-30T04:27:18.702Z,100.00
2018-12-30T04:29:45.477Z,100.00
2018-12-30T04:32:12.228Z,100.00
2018-12-30T04:34:39.000Z,100.00
2018-12-30T04:37:05.729Z,100.00
2018-12-30T04:39:32.502Z,100.00
2018-12-30T04:41:59.237Z,100.00
2018-12-30T04:44:25.992Z,100.00
2018-12-30T04:46:52.741Z,100.00
2018-12-30T04:49:19.505Z,100.00
2018-12-30T04:51:46.245Z,100.00
2018-12-30T04:54:12.993Z,100.00
2018-12-30T04:56:39.730Z,99.51
2018-12-30T04:59:06.501Z,99.20
2018-12-30T05:01:33.355Z,99.04
2018-12-30T05:03:59.987Z,100.00
2018-12-30T05:06:26.729Z,100.00
2018-12-30T05:08:53.500Z,100.00
2018-12-30T05:11:20.255Z,100.00
2018-12-30T05:13:47.012Z,100.00
2018-12-30T05:16:13.744Z,100.00
2018-12-30T05:18:40.502Z,100.00
2018-12-30T05:21:07.232Z,100.00
2018-12-30T05:23:34.004Z,100.00
2018-12-30T05:26:00.732Z,100.00
2018-12-30T05:28:27.488Z,100.00
2018-12-30T05:30:54.245Z,100.00
2018-12-30T05:33:20.970Z,100.00
2018-12-30T05:35:47.739Z,99.71
2018-12-30T05:38:14.485Z,99.47
2018-12-30T05:40:41.232Z,98.93
2018-12-30T05:43:07.986Z,98.35
2018-12-30T05:45:34.761Z,98.03
2018-12-30T05:48:01.487Z,99.09
2018-12-30T05:50:28.312Z,99.47
2018-12-30T05:52:55.062Z,100.00
2018-12-30T05:55:21.801Z,100.00
2018-12-30T05:57:48.550Z,100.00
2018-12-30T06:00:15.304Z,100.00
2018-12-30T06:02:42.044Z,100.00
2018-12-30T06:05:08.877Z,100.00
2018-12-30T06:07:35.540Z,100.00
2018-12-30T06:10:02.320Z,100.00
2018-12-30T06:12:29.064Z,100.00
2018-12-30T06:14:55.822Z,100.00
2018-12-30T06:17:22.561Z,100.00
2018-12-30T06:19:49.312Z,100.00
2018-12-30T06:22:16.056Z,100.00
2018-12-30T06:24:42.812Z,100.00
2018-12-30T06:27:09.533Z,100.00
2018-12-30T06:29:36.276Z,100.00
2018-12-30T06:32:03.010Z,100.00
2018-12-30T06:34:29.766Z,100.00
2018-12-30T06:36:56.548Z,100.00
2018-12-30T06:39:23.314Z,100.00
2018-12-30T06:41:50.104Z,99.94
2018-12-30T06:44:16.845Z,99.55
2018-12-30T06:46:43.604Z,99.41
2018-12-30T06:49:10.659Z,99.40
2018-12-30T06:51:37.103Z,99.23
2018-12-30T06:54:03.860Z,98.86
2018-12-30T06:56:30.621Z,98.39
2018-12-30T06:58:57.352Z,97.59
2018-12-30T07:01:24.118Z,96.45
2018-12-30T07:03:50.961Z,95.79
2018-12-30T07:06:17.756Z,95.41
2018-12-30T07:08:44.501Z,95.97
2018-12-30T07:11:11.244Z,97.40
2018-12-30T07:13:37.996Z,98.52
2018-12-30T07:16:04.768Z,99.24
2018-12-30T07:18:31.509Z,99.39
2018-12-30T07:20:58.295Z,99.81
2018-12-30T07:23:25.029Z,99.69
2018-12-30T07:25:51.787Z,99.75
2018-12-30T07:28:18.571Z,99.57
2018-12-30T07:30:45.392Z,99.73
2018-12-30T07:33:12.132Z,99.76
2018-12-30T07:35:38.957Z,99.32
2018-12-30T07:38:05.684Z,99.19
2018-12-30T07:40:32.461Z,99.41
2018-12-30T07:42:59.206Z,99.33
2018-12-30T07:45:25.968Z,99.25
2018-12-30T07:47:52.712Z,98.79
2018-12-30T07:50:19.483Z,98.89
2018-12-30T07:52:46.215Z,97.59
2018-12-30T07:55:13.546Z,97.37
2018-12-30T07:57:40.858Z,96.77
2018-12-30T08:00:07.590Z,97.48
2018-12-30T08:02:34.344Z,97.96
2018-12-30T08:05:01.100Z,97.46
2018-12-30T08:07:27.879Z,96.69
2018-12-30T08:09:54.612Z,96.69
2018-12-30T08:12:21.387Z,96.78
2018-12-30T08:14:48.128Z,97.63
2018-12-30T08:17:14.904Z,98.58
2018-12-30T08:19:41.640Z,98.79
2018-12-30T08:22:08.432Z,98.97
2018-12-30T08:24:35.180Z,99.45
2018-12-30T08:27:01.950Z,99.57
2018-12-30T08:29:28.696Z,99.86
2018-12-30T08:31:55.444Z,99.93
2018-12-30T08:34:22.184Z,100.00
2018-12-30T08:36:48.961Z,100.00
2018-12-30T08:39:15.718Z,100.00
2018-12-30T08:41:42.492Z,100.00
2018-12-30T08:44:09.236Z,100.00
2018-12-30T08:46:36.005Z,100.00
2018-12-30T08:49:02.745Z,100.00
2018-12-30T08:51:29.500Z,100.00
2018-12-30T08:53:56.377Z,100.00
2018-12-30T08:56:23.136Z,100.00
2018-12-30T08:58:49.880Z,99.49
2018-12-30T09:01:16.632Z,99.40
2018-12-30T09:03:43.369Z,99.10
2018-12-30T09:06:10.148Z,99.18
2018-12-30T09:08:36.884Z,98.78
2018-12-30T09:11:03.645Z,98.43
2018-12-30T09:13:30.397Z,98.29
2018-12-30T09:15:57.157Z,97.07
2018-12-30T09:18:23.912Z,96.45
2018-12-30T09:20:50.644Z,96.91
2018-12-30T09:23:19.216Z,97.64
2018-12-30T09:25:44.229Z,97.23
2018-12-30T09:28:10.985Z,97.83
2018-12-30T09:30:37.717Z,98.46
2018-12-30T09:33:04.508Z,98.81
2018-12-30T09:35:31.251Z,98.90
2018-12-30T09:37:58.004Z,98.27
2018-12-30T09:40:24.784Z,98.05
2018-12-30T09:42:51.544Z,98.25
2018-12-30T09:45:18.309Z,98.30
2018-12-30T09:47:45.075Z,97.93
2018-12-30T09:50:11.818Z,98.17
2018-12-30T09:52:38.577Z,97.08
2018-12-30T09:55:05.313Z,95.35
2018-12-30T09:57:32.078Z,95.62
2018-12-30T09:59:58.820Z,95.95
2018-12-30T10:02:25.701Z,97.26
2018-12-30T10:04:52.436Z,97.98
2018-12-30T10:07:19.220Z,98.06
2018-12-30T10:09:45.964Z,97.66
2018-12-30T10:12:12.757Z,97.20
2018-12-30T10:14:39.501Z,97.58
2018-12-30T10:17:06.249Z,96.66
2018-12-30T10:19:33.001Z,96.37
2018-12-30T10:21:59.764Z,95.86
2018-12-30T10:24:26.504Z,94.49
2018-12-30T10:26:53.272Z,92.41
2018-12-30T10:29:20.023Z,92.86
2018-12-30T10:31:46.797Z,92.85
2018-12-30T10:34:13.536Z,93.69
2018-12-30T10:36:40.301Z,95.03
2018-12-30T10:39:07.081Z,95.61
2018-12-30T10:41:33.852Z,96.02
2018-12-30T10:44:00.629Z,95.80
2018-12-30T10:46:27.400Z,95.89
2018-12-30T10:48:54.169Z,95.96
2018-12-30T10:51:20.908Z,95.01
2018-12-30T10:53:47.693Z,94.11
2018-12-30T10:56:14.436Z,94.06
2018-12-30T10:58:41.188Z,93.78
2018-12-30T11:01:07.948Z,94.24
2018-12-30T11:03:34.717Z,93.93
2018-12-30T11:06:02.476Z,93.24
2018-12-30T11:08:29.240Z,92.91
2018-12-30T11:10:55.980Z,92.67
2018-12-30T11:13:22.800Z,93.15
2018-12-30T11:15:49.680Z,93.13
2018-12-30T11:18:16.435Z,92.07
2018-12-30T11:20:43.252Z,92.73
2018-12-30T11:23:10.012Z,92.46
2018-12-30T11:25:36.770Z,92.99
2018-12-30T11:28:03.523Z,92.61
2018-12-30T11:30:30.265Z,92.54
2018-12-30T11:32:57.048Z,91.87
2018-12-30T11:35:23.797Z,91.52
2018-12-30T11:37:50.588Z,92.22
2018-12-30T11:40:17.341Z,91.34
2018-12-30T11:42:44.100Z,91.28
2018-12-30T11:45:10.844Z,91.66
2018-12-30T11:47:37.893Z,91.46
2018-12-30T11:50:05.377Z,92.02
2018-12-30T11:52:32.124Z,92.44
2018-12-30T11:54:58.920Z,92.94
2018-12-30T11:57:25.649Z,92.81
2018-12-30T11:59:52.405Z,92.46
2018-12-30T12:02:23.963Z,92.53
2018-12-30T12:04:45.921Z,92.61
2018-12-30T12:07:12.660Z,92.06
2018-12-30T12:09:39.425Z,92.71
2018-12-30T12:12:06.176Z,92.29
2018-12-30T12:14:33.036Z,92.24
2018-12-30T12:16:59.780Z,92.63
2018-12-30T12:19:26.628Z,92.56
2018-12-30T12:21:53.381Z,92.79
2018-12-30T12:24:24.309Z,92.39
2018-12-30T12:26:46.888Z,92.03
2018-12-30T12:29:14.100Z,92.41
2018-12-30T12:31:40.857Z,92.44
2018-12-30T12:34:07.620Z,92.15
2018-12-30T12:36:34.384Z,92.74
2018-12-30T12:39:01.172Z,92.10
2018-12-30T12:41:27.957Z,90.81
2018-12-30T12:43:54.708Z,92.16
2018-12-30T12:46:21.457Z,91.58
2018-12-30T12:48:48.225Z,92.13
2018-12-30T12:51:14.959Z,91.43
2018-12-30T12:53:41.726Z,92.26
2018-12-30T12:56:08.467Z,92.78
2018-12-30T12:58:35.224Z,92.57
2018-12-30T13:01:01.965Z,92.04
2018-12-30T13:03:28.716Z,91.74
2018-12-30T13:05:55.477Z,92.45
2018-12-30T13:08:22.213Z,92.22
2018-12-30T13:10:48.988Z,91.80
2018-12-30T13:13:15.732Z,91.86
2018-12-30T13:15:42.624Z,91.80
2018-12-30T13:18:09.381Z,91.79
2018-12-30T13:20:36.127Z,92.05
2018-12-30T13:23:02.881Z,91.62
2018-12-30T13:25:29.637Z,91.79
2018-12-30T13:27:56.368Z,91.85
2018-12-30T13:30:23.116Z,91.00
2018-12-30T13:32:49.868Z,91.27
2018-12-30T13:35:16.681Z,91.11
2018-12-30T13:37:43.432Z,90.90
2018-12-30T13:40:10.195Z,90.41
2018-12-30T13:42:36.932Z,90.08
2018-12-30T13:45:04.120Z,90.14
2018-12-30T13:47:30.864Z,90.00
2018-12-30T13:49:57.624Z,91.26
2018-12-30T13:52:24.372Z,90.97
2018-12-30T13:54:51.132Z,91.98
2018-12-30T13:57:17.876Z,91.38
2018-12-30T13:59:44.639Z,91.60
2018-12-30T14:02:11.411Z,91.31
2018-12-30T14:04:38.177Z,91.67
2018-12-30T14:07:04.936Z,91.43
2018-12-30T14:09:31.712Z,91.55
2018-12-30T14:11:58.452Z,90.85
2018-12-30T14:14:25.208Z,91.33
2018-12-30T14:16:51.964Z,91.65
2018-12-30T14:19:18.735Z,91.40
2018-12-30T14:21:45.480Z,90.91
2018-12-30T14:24:12.241Z,91.49
2018-12-30T14:26:39.001Z,91.07
2018-12-30T14:29:05.767Z,91.02
2018-12-30T14:31:32.517Z,91.86
2018-12-30T14:33:59.258Z,91.44
2018-12-30T14:36:26.097Z,91.15
2018-12-30T14:38:52.888Z,91.46
2018-12-30T14:41:19.628Z,91.58
2018-12-30T14:43:46.387Z,92.04
2018-12-30T14:46:13.136Z,91.59
2018-12-30T14:48:39.912Z,91.87
2018-12-30T14:51:06.660Z,91.45
2018-12-30T14:53:33.413Z,91.88
2018-12-30T14:56:00.184Z,90.91
2018-12-30T14:58:26.925Z,91.85
2018-12-30T15:00:53.686Z,92.40
2018-12-30T15:03:20.444Z,91.58
2018-12-30T15:05:47.200Z,91.35
2018-12-30T15:08:13.941Z,92.04
2018-12-30T15:10:40.697Z,92.25
2018-12-30T15:13:07.448Z,92.21
2018-12-30T15:15:34.213Z,92.07
2018-12-30T15:18:00.994Z,92.57
2018-12-30T15:20:27.814Z,92.59
2018-12-30T15:22:54.501Z,92.26
2018-12-30T15:25:21.241Z,91.72
2018-12-30T15:27:47.997Z,91.68
2018-12-30T15:30:14.760Z,91.74
2018-12-30T15:32:41.531Z,91.73
2018-12-30T15:35:08.260Z,91.47
2018-12-30T15:37:35.023Z,90.97
2018-12-30T15:40:01.785Z,90.86
2018-12-30T15:42:28.564Z,90.32
2018-12-30T15:44:55.321Z,89.98
2018-12-30T15:47:22.086Z,89.34
2018-12-30T15:49:48.829Z,88.61
2018-12-30T15:52:15.587Z,88.88
2018-12-30T15:54:42.328Z,88.30
2018-12-30T15:57:09.104Z,88.29
2018-12-30T15:59:35.853Z,89.16
2018-12-30T16:02:02.717Z,89.24
2018-12-30T16:04:29.453Z,89.18
2018-12-30T16:06:56.219Z,89.94
2018-12-30T16:09:23.037Z,90.35
2018-12-30T16:11:49.780Z,89.07
2018-12-30T16:14:16.548Z,89.37
2018-12-30T16:16:43.301Z,87.70
2018-12-30T16:19:10.060Z,88.98
2018-12-30T16:21:36.818Z,88.12
2018-12-30T16:24:03.570Z,88.93
2018-12-30T16:26:30.337Z,89.49
2018-12-30T16:28:57.075Z,89.09
2018-12-30T16:31:28.044Z,90.02
2018-12-30T16:33:50.563Z,89.77
2018-12-30T16:36:17.344Z,90.36
2018-12-30T16:38:44.088Z,89.41
2018-12-30T16:41:10.832Z,89.64
2018-12-30T16:43:37.617Z,90.07
2018-12-30T16:46:04.361Z,90.02
2018-12-30T16:48:31.137Z,90.46
2018-12-30T16:50:57.887Z,89.56
2018-12-30T16:53:24.640Z,89.74
2018-12-30T16:55:51.416Z,90.23
2018-12-30T16:58:18.216Z,91.05
2018-12-30T17:00:45.006Z,93.10
2018-12-30T17:03:11.752Z,94.09
2018-12-30T17:05:38.557Z,94.19
2018-12-30T17:08:05.321Z,94.30
2018-12-30T17:10:32.073Z,94.84
2018-12-30T17:12:58.846Z,94.62
2018-12-30T17:15:25.585Z,95.22
2018-12-30T17:17:52.349Z,96.62
2018-12-30T17:20:19.096Z,97.02
2018-12-30T17:22:45.855Z,96.95
2018-12-30T17:25:12.585Z,97.50
2018-12-30T17:27:39.344Z,97.80
2018-12-30T17:30:07.658Z,98.16
2018-12-30T17:32:34.431Z,97.58
2018-12-30T17:35:01.174Z,97.51
2018-12-30T17:37:27.949Z,97.27
2018-12-30T17:39:54.739Z,97.08
2018-12-30T17:42:21.526Z,96.07
2018-12-30T17:44:48.305Z,96.67
2018-12-30T17:47:15.125Z,97.66
2018-12-30T17:49:41.882Z,97.11
2018-12-30T17:52:08.678Z,97.25
2018-12-30T17:54:35.412Z,97.58
2018-12-30T17:57:02.192Z,96.84
2018-12-30T17:59:28.976Z,96.13
2018-12-30T18:01:55.718Z,96.79
2018-12-30T18:04:22.504Z,96.83
2018-12-30T18:06:49.485Z,97.07
2018-12-30T18:09:16.278Z,96.17
2018-12-30T18:11:43.072Z,96.76
2018-12-30T18:14:09.827Z,96.20
2018-12-30T18:16:36.580Z,96.30
2018-12-30T18:19:03.333Z,96.27
2018-12-30T18:21:30.118Z,95.35
2018-12-30T18:23:56.901Z,95.51
2018-12-30T18:26:23.646Z,95.47
2018-12-30T18:28:50.408Z,95.32
2018-12-30T18:31:17.168Z,95.17
2018-12-30T18:33:43.940Z,94.64
2018-12-30T18:36:10.689Z,95.33
2018-12-30T18:38:37.548Z,94.89
2018-12-30T18:41:04.408Z,93.93
2018-12-30T18:43:31.176Z,93.73
2018-12-30T18:45:58.016Z,93.05
2018-12-30T18:48:24.776Z,93.31
2018-12-30T18:50:51.517Z,92.62
2018-12-30T18:53:18.368Z,92.17
2018-12-30T18:55:46.516Z,93.24
2018-12-30T18:58:11.833Z,92.66
2018-12-30T19:00:38.577Z,92.83
2018-12-30T19:03:05.341Z,91.85
2018-12-30T19:05:32.195Z,92.80
2018-12-30T19:07:59.345Z,92.95
2018-12-30T19:10:26.213Z,92.85
2018-12-30T19:12:52.960Z,92.39
2018-12-30T19:15:19.743Z,91.98
2018-12-30T19:17:46.490Z,92.56
2018-12-30T19:20:13.361Z,92.98
2018-12-30T19:22:40.104Z,93.89
2018-12-30T19:25:06.877Z,94.07
2018-12-30T19:27:33.653Z,93.48
2018-12-30T19:30:00.426Z,93.85
2018-12-30T19:32:27.176Z,94.49
2018-12-30T19:34:53.954Z,93.93
2018-12-30T19:37:20.700Z,93.72
2018-12-30T19:39:47.464Z,93.96
2018-12-30T19:42:14.210Z,93.77
2018-12-30T19:44:42.049Z,93.68
2018-12-30T19:47:08.803Z,93.18
2018-12-30T19:49:35.557Z,93.91
2018-12-30T19:52:02.361Z,94.11
2018-12-30T19:54:29.138Z,94.16
2018-12-30T19:56:55.880Z,93.49
2018-12-30T19:59:22.657Z,94.24
2018-12-30T20:01:49.435Z,92.45
2018-12-30T20:04:16.206Z,92.30
2018-12-30T20:06:42.944Z,93.30
2018-12-30T20:09:09.705Z,92.67
2018-12-30T20:11:36.468Z,93.60
2018-12-30T20:14:03.237Z,93.21
2018-12-30T20:16:30.037Z,94.03
2018-12-30T20:18:56.789Z,93.78
2018-12-30T20:21:23.542Z,95.32
2018-12-30T20:23:50.337Z,96.11
2018-12-30T20:26:17.073Z,96.31
2018-12-30T20:28:43.824Z,95.36
2018-12-30T20:31:10.594Z,95.90
2018-12-30T20:33:37.328Z,96.55
2018-12-30T20:36:04.088Z,97.19
2018-12-30T20:38:30.820Z,97.29
2018-12-30T20:40:57.607Z,98.26
2018-12-30T20:43:24.371Z,98.80
2018-12-30T20:45:51.209Z,99.39
2018-12-30T20:48:17.958Z,99.83
2018-12-30T20:50:44.720Z,100.00
2018-12-30T20:53:11.473Z,100.00
2018-12-30T20:55:38.229Z,100.00
2018-12-30T20:58:04.993Z,100.00
2018-12-30T21:00:31.763Z,100.00
2018-12-30T21:02:58.516Z,100.00
2018-12-30T21:05:25.290Z,100.00
2018-12-30T21:07:52.157Z,100.00
2018-12-30T21:10:18.926Z,100.00
2018-12-30T21:12:45.695Z,100.00
2018-12-30T21:15:12.449Z,100.00
2018-12-30T21:17:39.199Z,100.00
2018-12-30T21:20:05.979Z,100.00
2018-12-30T21:22:32.724Z,100.00
2018-12-30T21:24:59.489Z,100.00
2018-12-30T21:27:26.224Z,100.00
2018-12-30T21:29:52.996Z,100.00
2018-12-30T21:32:19.734Z,100.00
2018-12-30T21:34:46.488Z,100.00
2018-12-30T21:37:13.233Z,100.00
2018-12-30T21:39:40.005Z,100.00
2018-12-30T21:42:06.775Z,100.00
2018-12-30T21:44:33.564Z,100.00
2018-12-30T21:47:00.356Z,100.00
2018-12-30T21:49:27.092Z,100.00
2018-12-30T21:51:53.857Z,100.00
2018-12-30T21:54:20.608Z,100.00
2018-12-30T21:56:54.585Z,100.00
2018-12-30T21:59:14.134Z,100.00
2018-12-30T22:01:40.897Z,100.00
2018-12-30T22:04:07.649Z,100.00
2018-12-30T22:06:34.424Z,100.00
2018-12-30T22:09:01.167Z,100.00
2018-12-30T22:11:27.937Z,100.00
2018-12-30T22:13:54.705Z,100.00
2018-12-30T22:16:21.598Z,100.00
2018-12-30T22:18:48.332Z,100.00
2018-12-30T22:21:15.097Z,100.00
2018-12-30T22:23:41.852Z,100.00
2018-12-30T22:26:08.616Z,100.00
2018-12-30T22:28:35.355Z,100.00
2018-12-30T22:31:02.133Z,100.00
2018-12-30T22:33:28.873Z,100.00
2018-12-30T22:35:55.652Z,100.00
2018-12-30T22:38:22.390Z,100.00
2018-12-30T22:40:49.152Z,100.00
2018-12-30T22:43:15.900Z,100.00
2018-12-30T22:45:42.648Z,100.00
2018-12-30T22:48:09.420Z,100.00
2018-12-30T22:50:36.180Z,100.00
2018-12-30T22:53:02.945Z,100.00
2018-12-30T22:55:29.700Z,100.00
2018-12-30T22:57:56.465Z,100.00
2018-12-30T23:00:36.892Z,100.00
2018-12-30T23:03:03.700Z,100.00
2018-12-30T23:05:30.392Z,100.00
2018-12-30T23:07:57.164Z,100.00
2018-12-30T23:10:23.921Z,100.00
2018-12-30T23:12:50.724Z,100.00
2018-12-30T23:15:17.460Z,100.00
2018-12-30T23:17:44.237Z,100.00
2018-12-30T23:20:10.976Z,100.00
2018-12-30T23:22:37.768Z,100.00
2018-12-30T23:25:04.648Z,100.00
2018-12-30T23:27:31.484Z,100.00
2018-12-30T23:29:58.247Z,100.00
2018-12-30T23:32:25.113Z,100.00
2018-12-30T23:34:51.873Z,100.00
2018-12-30T23:37:18.644Z,100.00
2018-12-30T23:39:45.383Z,100.00
2018-12-30T23:42:12.224Z,100.00
2018-12-30T23:44:38.980Z,100.00
2018-12-30T23:47:05.744Z,100.00
2018-12-30T23:49:32.496Z,100.00
2018-12-30T23:51:59.256Z,100.00
2018-12-30T23:54:25.993Z,100.00
2018-12-30T23:56:52.737Z,100.00
2018-12-30T23:59:19.465Z,100.00
